sensor_id;sensor_type;location;lat;lon;timestamp;P1;P2;P0
53678;PMS5003;40119;52.030;4.708;2022-09-03T00:00:05;4;4;
53678;PMS5003;40119;52.030;4.708;2022-09-03T00:02:15;2;2;
53678;PMS5003;40119;52.030;4.708;2022-09-03T00:04:26;4;4;
53678;PMS5003;40119;52.030;4.708;2022-09-03T00:06:37;2;2;
53678;PMS5003;40119;52.030;4.708;2022-09-03T00:08:47;4;4;
53678;PMS5003;40119;52.030;4.708;2022-09-03T00:10:58;4;4;
53678;PMS5003;40119;52.030;4.708;2022-09-03T00:13:08;3;3;
53678;PMS5003;40119;52.030;4.708;2022-09-03T00:15:17;3;3;
53678;PMS5003;40119;52.030;4.708;2022-09-03T00:17:25;5;4;
53678;PMS5003;40119;52.030;4.708;2022-09-03T00:19:36;2;2;
53678;PMS5003;40119;52.030;4.708;2022-09-03T00:21:44;5;2;
53678;PMS5003;40119;52.030;4.708;2022-09-03T00:23:51;4;4;
53678;PMS5003;40119;52.030;4.708;2022-09-03T00:25:58;3;3;
53678;PMS5003;40119;52.030;4.708;2022-09-03T00:28:19;5;5;
53678;PMS5003;40119;52.030;4.708;2022-09-03T00:30:27;2;2;
53678;PMS5003;40119;52.030;4.708;2022-09-03T00:32:38;3;3;
53678;PMS5003;40119;52.030;4.708;2022-09-03T00:34:46;2;2;
53678;PMS5003;40119;52.030;4.708;2022-09-03T00:36:57;3;2;
53678;PMS5003;40119;52.030;4.708;2022-09-03T00:39:01;4;4;
53678;PMS5003;40119;52.030;4.708;2022-09-03T00:41:07;4;4;
53678;PMS5003;40119;52.030;4.708;2022-09-03T00:43:23;2;2;
53678;PMS5003;40119;52.030;4.708;2022-09-03T00:45:38;2;2;
53678;PMS5003;40119;52.030;4.708;2022-09-03T00:47:54;5;5;
53678;PMS5003;40119;52.030;4.708;2022-09-03T00:50:12;4;3;
53678;PMS5003;40119;52.030;4.708;2022-09-03T00:52:24;4;4;
53678;PMS5003;40119;52.030;4.708;2022-09-03T00:54:45;3;3;
53678;PMS5003;40119;52.030;4.708;2022-09-03T00:56:59;3;3;
53678;PMS5003;40119;52.030;4.708;2022-09-03T00:59:18;3;1;
53678;PMS5003;40119;52.030;4.708;2022-09-03T01:01:35;3;3;
53678;PMS5003;40119;52.030;4.708;2022-09-03T01:03:51;4;4;
53678;PMS5003;40119;52.030;4.708;2022-09-03T01:06:08;5;3;
53678;PMS5003;40119;52.030;4.708;2022-09-03T01:08:25;2;2;
53678;PMS5003;40119;52.030;4.708;2022-09-03T01:10:42;3;3;
53678;PMS5003;40119;52.030;4.708;2022-09-03T01:12:57;2;2;
53678;PMS5003;40119;52.030;4.708;2022-09-03T01:15:11;3;3;
53678;PMS5003;40119;52.030;4.708;2022-09-03T01:17:23;5;4;
53678;PMS5003;40119;52.030;4.708;2022-09-03T01:19:44;3;3;
53678;PMS5003;40119;52.030;4.708;2022-09-03T01:22:08;3;3;
53678;PMS5003;40119;52.030;4.708;2022-09-03T01:24:31;2;2;
53678;PMS5003;40119;52.030;4.708;2022-09-03T01:27:02;2;2;
53678;PMS5003;40119;52.030;4.708;2022-09-03T01:29:22;4;4;
53678;PMS5003;40119;52.030;4.708;2022-09-03T01:31:31;3;3;
53678;PMS5003;40119;52.030;4.708;2022-09-03T01:33:43;4;4;
53678;PMS5003;40119;52.030;4.708;2022-09-03T01:35:57;5;3;
53678;PMS5003;40119;52.030;4.708;2022-09-03T01:38:15;5;5;
53678;PMS5003;40119;52.030;4.708;2022-09-03T01:40:31;2;2;
53678;PMS5003;40119;52.030;4.708;2022-09-03T01:42:52;3;3;
53678;PMS5003;40119;52.030;4.708;2022-09-03T01:45:16;5;4;
53678;PMS5003;40119;52.030;4.708;2022-09-03T01:47:35;3;3;
53678;PMS5003;40119;52.030;4.708;2022-09-03T01:49:50;6;4;
53678;PMS5003;40119;52.030;4.708;2022-09-03T01:52:05;3;3;
53678;PMS5003;40119;52.030;4.708;2022-09-03T01:54:38;4;3;
53678;PMS5003;40119;52.030;4.708;2022-09-03T01:57:04;4;3;
53678;PMS5003;40119;52.030;4.708;2022-09-03T01:59:22;3;3;
53678;PMS5003;40119;52.030;4.708;2022-09-03T02:01:40;5;3;
53678;PMS5003;40119;52.030;4.708;2022-09-03T02:03:48;4;4;
53678;PMS5003;40119;52.030;4.708;2022-09-03T02:05:52;3;3;
53678;PMS5003;40119;52.030;4.708;2022-09-03T02:07:57;3;2;
53678;PMS5003;40119;52.030;4.708;2022-09-03T02:10:06;2;2;
53678;PMS5003;40119;52.030;4.708;2022-09-03T02:12:14;3;3;
53678;PMS5003;40119;52.030;4.708;2022-09-03T02:14:21;3;3;
53678;PMS5003;40119;52.030;4.708;2022-09-03T02:16:26;4;3;
53678;PMS5003;40119;52.030;4.708;2022-09-03T02:18:35;3;3;
53678;PMS5003;40119;52.030;4.708;2022-09-03T02:20:43;5;4;
53678;PMS5003;40119;52.030;4.708;2022-09-03T02:22:49;3;3;
53678;PMS5003;40119;52.030;4.708;2022-09-03T02:24:54;2;2;
53678;PMS5003;40119;52.030;4.708;2022-09-03T02:26:59;2;2;
53678;PMS5003;40119;52.030;4.708;2022-09-03T02:29:03;2;2;
53678;PMS5003;40119;52.030;4.708;2022-09-03T02:31:07;3;2;
53678;PMS5003;40119;52.030;4.708;2022-09-03T02:33:12;3;3;
53678;PMS5003;40119;52.030;4.708;2022-09-03T02:35:17;3;3;
53678;PMS5003;40119;52.030;4.708;2022-09-03T02:37:21;4;4;
53678;PMS5003;40119;52.030;4.708;2022-09-03T02:39:25;4;3;
53678;PMS5003;40119;52.030;4.708;2022-09-03T02:41:29;6;3;
53678;PMS5003;40119;52.030;4.708;2022-09-03T02:43:36;3;3;
53678;PMS5003;40119;52.030;4.708;2022-09-03T02:45:45;4;3;
53678;PMS5003;40119;52.030;4.708;2022-09-03T02:47:54;3;3;
53678;PMS5003;40119;52.030;4.708;2022-09-03T02:50:01;2;2;
53678;PMS5003;40119;52.030;4.708;2022-09-03T02:52:06;3;3;
53678;PMS5003;40119;52.030;4.708;2022-09-03T02:54:12;3;3;
53678;PMS5003;40119;52.030;4.708;2022-09-03T02:56:17;3;3;
53678;PMS5003;40119;52.030;4.708;2022-09-03T02:58:21;3;2;
53678;PMS5003;40119;52.030;4.708;2022-09-03T03:00:31;2;2;
53678;PMS5003;40119;52.030;4.708;2022-09-03T03:02:35;2;2;
53678;PMS5003;40119;52.030;4.708;2022-09-03T03:04:40;4;3;
53678;PMS5003;40119;52.030;4.708;2022-09-03T03:06:44;2;1;
53678;PMS5003;40119;52.030;4.708;2022-09-03T03:08:49;3;3;
53678;PMS5003;40119;52.030;4.708;2022-09-03T03:10:55;2;2;
53678;PMS5003;40119;52.030;4.708;2022-09-03T03:13:01;4;2;
53678;PMS5003;40119;52.030;4.708;2022-09-03T03:15:05;3;2;
53678;PMS5003;40119;52.030;4.708;2022-09-03T03:17:10;2;2;
53678;PMS5003;40119;52.030;4.708;2022-09-03T03:19:15;3;3;
53678;PMS5003;40119;52.030;4.708;2022-09-03T03:21:19;1;1;
53678;PMS5003;40119;52.030;4.708;2022-09-03T03:23:24;3;3;
53678;PMS5003;40119;52.030;4.708;2022-09-03T03:25:30;2;2;
53678;PMS5003;40119;52.030;4.708;2022-09-03T03:27:35;3;3;
53678;PMS5003;40119;52.030;4.708;2022-09-03T03:29:39;3;3;
53678;PMS5003;40119;52.030;4.708;2022-09-03T03:31:43;2;2;
53678;PMS5003;40119;52.030;4.708;2022-09-03T03:33:49;3;3;
53678;PMS5003;40119;52.030;4.708;2022-09-03T03:35:54;2;2;
53678;PMS5003;40119;52.030;4.708;2022-09-03T03:37:58;1;1;
53678;PMS5003;40119;52.030;4.708;2022-09-03T03:40:03;3;3;
53678;PMS5003;40119;52.030;4.708;2022-09-03T03:42:08;1;1;
53678;PMS5003;40119;52.030;4.708;2022-09-03T03:44:12;1;1;
53678;PMS5003;40119;52.030;4.708;2022-09-03T03:46:16;1;1;
53678;PMS5003;40119;52.030;4.708;2022-09-03T03:48:21;3;3;
53678;PMS5003;40119;52.030;4.708;2022-09-03T03:50:25;2;2;
53678;PMS5003;40119;52.030;4.708;2022-09-03T03:52:29;4;3;
53678;PMS5003;40119;52.030;4.708;2022-09-03T03:54:34;3;3;
53678;PMS5003;40119;52.030;4.708;2022-09-03T03:56:39;4;2;
53678;PMS5003;40119;52.030;4.708;2022-09-03T03:58:43;2;2;
53678;PMS5003;40119;52.030;4.708;2022-09-03T04:00:47;0;0;
53678;PMS5003;40119;52.030;4.708;2022-09-03T04:02:52;1;1;
53678;PMS5003;40119;52.030;4.708;2022-09-03T04:04:56;3;3;
53678;PMS5003;40119;52.030;4.708;2022-09-03T04:07:01;2;2;
53678;PMS5003;40119;52.030;4.708;2022-09-03T04:09:05;2;2;
53678;PMS5003;40119;52.030;4.708;2022-09-03T04:11:10;2;2;
53678;PMS5003;40119;52.030;4.708;2022-09-03T04:13:16;2;2;
53678;PMS5003;40119;52.030;4.708;2022-09-03T04:15:21;3;2;
53678;PMS5003;40119;52.030;4.708;2022-09-03T04:17:26;2;2;
53678;PMS5003;40119;52.030;4.708;2022-09-03T04:19:31;1;1;
53678;PMS5003;40119;52.030;4.708;2022-09-03T04:21:36;4;3;
53678;PMS5003;40119;52.030;4.708;2022-09-03T04:23:40;1;1;
53678;PMS5003;40119;52.030;4.708;2022-09-03T04:25:50;2;2;
53678;PMS5003;40119;52.030;4.708;2022-09-03T04:27:55;2;2;
53678;PMS5003;40119;52.030;4.708;2022-09-03T04:29:59;1;1;
53678;PMS5003;40119;52.030;4.708;2022-09-03T04:32:03;2;2;
53678;PMS5003;40119;52.030;4.708;2022-09-03T04:34:08;2;2;
53678;PMS5003;40119;52.030;4.708;2022-09-03T04:36:13;2;2;
53678;PMS5003;40119;52.030;4.708;2022-09-03T04:38:18;1;1;
53678;PMS5003;40119;52.030;4.708;2022-09-03T04:40:23;5;3;
53678;PMS5003;40119;52.030;4.708;2022-09-03T04:42:27;2;2;
53678;PMS5003;40119;52.030;4.708;2022-09-03T04:44:32;1;1;
53678;PMS5003;40119;52.030;4.708;2022-09-03T04:46:41;2;2;
53678;PMS5003;40119;52.030;4.708;2022-09-03T04:48:46;3;3;
53678;PMS5003;40119;52.030;4.708;2022-09-03T04:50:51;1;1;
53678;PMS5003;40119;52.030;4.708;2022-09-03T04:52:59;2;2;
53678;PMS5003;40119;52.030;4.708;2022-09-03T04:55:04;2;2;
53678;PMS5003;40119;52.030;4.708;2022-09-03T04:57:10;3;3;
53678;PMS5003;40119;52.030;4.708;2022-09-03T04:59:14;1;1;
53678;PMS5003;40119;52.030;4.708;2022-09-03T05:01:19;1;1;
53678;PMS5003;40119;52.030;4.708;2022-09-03T05:03:25;1;1;
53678;PMS5003;40119;52.030;4.708;2022-09-03T05:05:30;2;2;
53678;PMS5003;40119;52.030;4.708;2022-09-03T05:07:35;2;2;
53678;PMS5003;40119;52.030;4.708;2022-09-03T05:09:39;1;1;
53678;PMS5003;40119;52.030;4.708;2022-09-03T05:11:44;3;2;
53678;PMS5003;40119;52.030;4.708;2022-09-03T05:13:48;2;2;
53678;PMS5003;40119;52.030;4.708;2022-09-03T05:15:57;2;2;
53678;PMS5003;40119;52.030;4.708;2022-09-03T05:18:02;0;0;
53678;PMS5003;40119;52.030;4.708;2022-09-03T05:20:10;1;1;
53678;PMS5003;40119;52.030;4.708;2022-09-03T05:22:14;2;2;
53678;PMS5003;40119;52.030;4.708;2022-09-03T05:24:19;1;1;
53678;PMS5003;40119;52.030;4.708;2022-09-03T05:26:24;1;1;
53678;PMS5003;40119;52.030;4.708;2022-09-03T05:28:29;2;2;
53678;PMS5003;40119;52.030;4.708;2022-09-03T05:30:34;2;2;
53678;PMS5003;40119;52.030;4.708;2022-09-03T05:32:39;1;1;
53678;PMS5003;40119;52.030;4.708;2022-09-03T05:34:44;2;2;
53678;PMS5003;40119;52.030;4.708;2022-09-03T05:36:48;2;1;
53678;PMS5003;40119;52.030;4.708;2022-09-03T05:38:53;2;2;
53678;PMS5003;40119;52.030;4.708;2022-09-03T05:40:58;2;2;
53678;PMS5003;40119;52.030;4.708;2022-09-03T05:43:02;3;3;
53678;PMS5003;40119;52.030;4.708;2022-09-03T05:45:08;1;1;
53678;PMS5003;40119;52.030;4.708;2022-09-03T05:47:13;1;1;
53678;PMS5003;40119;52.030;4.708;2022-09-03T05:49:17;1;1;
53678;PMS5003;40119;52.030;4.708;2022-09-03T05:51:22;1;1;
53678;PMS5003;40119;52.030;4.708;2022-09-03T05:53:26;2;2;
53678;PMS5003;40119;52.030;4.708;2022-09-03T05:55:31;2;2;
53678;PMS5003;40119;52.030;4.708;2022-09-03T05:57:35;3;1;
53678;PMS5003;40119;52.030;4.708;2022-09-03T05:59:39;2;2;
53678;PMS5003;40119;52.030;4.708;2022-09-03T06:01:44;1;1;
53678;PMS5003;40119;52.030;4.708;2022-09-03T06:03:52;4;4;
53678;PMS5003;40119;52.030;4.708;2022-09-03T06:05:59;2;2;
53678;PMS5003;40119;52.030;4.708;2022-09-03T06:08:04;2;2;
53678;PMS5003;40119;52.030;4.708;2022-09-03T06:10:08;3;2;
53678;PMS5003;40119;52.030;4.708;2022-09-03T06:12:13;1;1;
53678;PMS5003;40119;52.030;4.708;2022-09-03T06:14:17;2;2;
53678;PMS5003;40119;52.030;4.708;2022-09-03T06:16:21;3;3;
53678;PMS5003;40119;52.030;4.708;2022-09-03T06:18:27;2;2;
53678;PMS5003;40119;52.030;4.708;2022-09-03T06:20:33;2;2;
53678;PMS5003;40119;52.030;4.708;2022-09-03T06:22:38;3;3;
53678;PMS5003;40119;52.030;4.708;2022-09-03T06:24:42;2;2;
53678;PMS5003;40119;52.030;4.708;2022-09-03T06:26:46;2;2;
53678;PMS5003;40119;52.030;4.708;2022-09-03T06:28:51;4;2;
53678;PMS5003;40119;52.030;4.708;2022-09-03T06:30:56;3;2;
53678;PMS5003;40119;52.030;4.708;2022-09-03T06:33:01;1;1;
53678;PMS5003;40119;52.030;4.708;2022-09-03T06:35:06;3;3;
53678;PMS5003;40119;52.030;4.708;2022-09-03T06:37:11;2;2;
53678;PMS5003;40119;52.030;4.708;2022-09-03T06:39:15;2;2;
53678;PMS5003;40119;52.030;4.708;2022-09-03T06:41:21;2;2;
53678;PMS5003;40119;52.030;4.708;2022-09-03T06:43:27;2;2;
53678;PMS5003;40119;52.030;4.708;2022-09-03T06:45:34;2;2;
53678;PMS5003;40119;52.030;4.708;2022-09-03T06:47:39;2;2;
53678;PMS5003;40119;52.030;4.708;2022-09-03T06:49:43;0;0;
53678;PMS5003;40119;52.030;4.708;2022-09-03T06:51:49;2;2;
53678;PMS5003;40119;52.030;4.708;2022-09-03T06:54:00;2;2;
53678;PMS5003;40119;52.030;4.708;2022-09-03T06:56:06;0;0;
53678;PMS5003;40119;52.030;4.708;2022-09-03T06:58:12;2;1;
53678;PMS5003;40119;52.030;4.708;2022-09-03T07:00:16;1;1;
53678;PMS5003;40119;52.030;4.708;2022-09-03T07:02:21;3;1;
53678;PMS5003;40119;52.030;4.708;2022-09-03T07:04:25;1;1;
53678;PMS5003;40119;52.030;4.708;2022-09-03T07:06:31;3;3;
53678;PMS5003;40119;52.030;4.708;2022-09-03T07:08:38;2;2;
53678;PMS5003;40119;52.030;4.708;2022-09-03T07:10:45;3;2;
53678;PMS5003;40119;52.030;4.708;2022-09-03T07:12:49;2;2;
53678;PMS5003;40119;52.030;4.708;2022-09-03T07:14:54;1;1;
53678;PMS5003;40119;52.030;4.708;2022-09-03T07:16:58;2;2;
53678;PMS5003;40119;52.030;4.708;2022-09-03T07:19:03;1;1;
53678;PMS5003;40119;52.030;4.708;2022-09-03T07:21:08;1;1;
53678;PMS5003;40119;52.030;4.708;2022-09-03T07:23:14;1;1;
53678;PMS5003;40119;52.030;4.708;2022-09-03T07:25:18;2;2;
53678;PMS5003;40119;52.030;4.708;2022-09-03T07:27:23;1;1;
53678;PMS5003;40119;52.030;4.708;2022-09-03T07:29:27;1;1;
53678;PMS5003;40119;52.030;4.708;2022-09-03T07:31:32;2;2;
53678;PMS5003;40119;52.030;4.708;2022-09-03T07:33:39;1;1;
53678;PMS5003;40119;52.030;4.708;2022-09-03T07:35:44;2;2;
53678;PMS5003;40119;52.030;4.708;2022-09-03T07:37:49;1;1;
53678;PMS5003;40119;52.030;4.708;2022-09-03T07:39:54;2;2;
53678;PMS5003;40119;52.030;4.708;2022-09-03T07:41:58;4;3;
53678;PMS5003;40119;52.030;4.708;2022-09-03T07:44:03;2;2;
53678;PMS5003;40119;52.030;4.708;2022-09-03T07:46:08;2;2;
53678;PMS5003;40119;52.030;4.708;2022-09-03T07:48:12;1;1;
53678;PMS5003;40119;52.030;4.708;2022-09-03T07:50:17;1;1;
53678;PMS5003;40119;52.030;4.708;2022-09-03T07:52:21;4;1;
53678;PMS5003;40119;52.030;4.708;2022-09-03T07:54:25;2;2;
53678;PMS5003;40119;52.030;4.708;2022-09-03T07:56:29;2;2;
53678;PMS5003;40119;52.030;4.708;2022-09-03T07:58:37;1;1;
53678;PMS5003;40119;52.030;4.708;2022-09-03T08:00:42;3;1;
53678;PMS5003;40119;52.030;4.708;2022-09-03T08:02:47;3;3;
53678;PMS5003;40119;52.030;4.708;2022-09-03T08:04:51;2;2;
53678;PMS5003;40119;52.030;4.708;2022-09-03T08:06:56;3;3;
53678;PMS5003;40119;52.030;4.708;2022-09-03T08:09:01;1;1;
53678;PMS5003;40119;52.030;4.708;2022-09-03T08:11:09;1;1;
53678;PMS5003;40119;52.030;4.708;2022-09-03T08:13:15;0;0;
53678;PMS5003;40119;52.030;4.708;2022-09-03T08:15:19;1;1;
53678;PMS5003;40119;52.030;4.708;2022-09-03T08:17:23;2;2;
53678;PMS5003;40119;52.030;4.708;2022-09-03T08:19:28;0;0;
53678;PMS5003;40119;52.030;4.708;2022-09-03T08:21:32;2;2;
53678;PMS5003;40119;52.030;4.708;2022-09-03T08:23:39;0;0;
53678;PMS5003;40119;52.030;4.708;2022-09-03T08:25:44;1;1;
53678;PMS5003;40119;52.030;4.708;2022-09-03T08:27:48;3;3;
53678;PMS5003;40119;52.030;4.708;2022-09-03T08:29:53;3;3;
53678;PMS5003;40119;52.030;4.708;2022-09-03T08:31:57;6;3;
53678;PMS5003;40119;52.030;4.708;2022-09-03T08:34:02;2;2;
53678;PMS5003;40119;52.030;4.708;2022-09-03T08:36:09;5;4;
53678;PMS5003;40119;52.030;4.708;2022-09-03T08:38:15;5;4;
53678;PMS5003;40119;52.030;4.708;2022-09-03T08:40:19;3;3;
53678;PMS5003;40119;52.030;4.708;2022-09-03T08:42:27;5;4;
53678;PMS5003;40119;52.030;4.708;2022-09-03T08:44:43;3;3;
53678;PMS5003;40119;52.030;4.708;2022-09-03T08:46:50;3;3;
53678;PMS5003;40119;52.030;4.708;2022-09-03T08:48:58;2;2;
53678;PMS5003;40119;52.030;4.708;2022-09-03T08:51:03;4;4;
53678;PMS5003;40119;52.030;4.708;2022-09-03T08:53:12;4;4;
53678;PMS5003;40119;52.030;4.708;2022-09-03T08:55:25;3;3;
53678;PMS5003;40119;52.030;4.708;2022-09-03T08:57:31;5;5;
53678;PMS5003;40119;52.030;4.708;2022-09-03T08:59:43;3;3;
53678;PMS5003;40119;52.030;4.708;2022-09-03T09:01:50;6;5;
53678;PMS5003;40119;52.030;4.708;2022-09-03T09:04:03;3;3;
53678;PMS5003;40119;52.030;4.708;2022-09-03T09:06:17;3;3;
53678;PMS5003;40119;52.030;4.708;2022-09-03T09:08:31;2;2;
53678;PMS5003;40119;52.030;4.708;2022-09-03T09:10:42;4;4;
53678;PMS5003;40119;52.030;4.708;2022-09-03T09:12:52;3;3;
53678;PMS5003;40119;52.030;4.708;2022-09-03T09:15:09;3;3;
53678;PMS5003;40119;52.030;4.708;2022-09-03T09:17:23;8;4;
53678;PMS5003;40119;52.030;4.708;2022-09-03T09:19:41;4;4;
53678;PMS5003;40119;52.030;4.708;2022-09-03T09:21:57;3;3;
53678;PMS5003;40119;52.030;4.708;2022-09-03T09:24:06;3;3;
53678;PMS5003;40119;52.030;4.708;2022-09-03T09:26:18;5;5;
53678;PMS5003;40119;52.030;4.708;2022-09-03T09:28:24;5;5;
53678;PMS5003;40119;52.030;4.708;2022-09-03T09:30:35;3;3;
53678;PMS5003;40119;52.030;4.708;2022-09-03T09:32:40;5;4;
53678;PMS5003;40119;52.030;4.708;2022-09-03T09:34:44;3;3;
53678;PMS5003;40119;52.030;4.708;2022-09-03T09:36:49;8;5;
53678;PMS5003;40119;52.030;4.708;2022-09-03T09:38:56;4;4;
53678;PMS5003;40119;52.030;4.708;2022-09-03T09:41:12;4;4;
53678;PMS5003;40119;52.030;4.708;2022-09-03T09:43:18;4;4;
53678;PMS5003;40119;52.030;4.708;2022-09-03T09:45:23;5;3;
53678;PMS5003;40119;52.030;4.708;2022-09-03T09:47:28;4;4;
53678;PMS5003;40119;52.030;4.708;2022-09-03T09:49:42;4;4;
53678;PMS5003;40119;52.030;4.708;2022-09-03T09:52:04;4;4;
53678;PMS5003;40119;52.030;4.708;2022-09-03T09:54:12;4;4;
53678;PMS5003;40119;52.030;4.708;2022-09-03T09:56:19;3;3;
53678;PMS5003;40119;52.030;4.708;2022-09-03T09:58:25;4;4;
53678;PMS5003;40119;52.030;4.708;2022-09-03T10:00:30;4;4;
53678;PMS5003;40119;52.030;4.708;2022-09-03T10:02:35;4;4;
53678;PMS5003;40119;52.030;4.708;2022-09-03T10:04:40;6;6;
53678;PMS5003;40119;52.030;4.708;2022-09-03T10:06:45;4;4;
53678;PMS5003;40119;52.030;4.708;2022-09-03T10:09:04;3;3;
53678;PMS5003;40119;52.030;4.708;2022-09-03T10:11:09;5;5;
53678;PMS5003;40119;52.030;4.708;2022-09-03T10:13:15;4;3;
53678;PMS5003;40119;52.030;4.708;2022-09-03T10:15:24;3;3;
53678;PMS5003;40119;52.030;4.708;2022-09-03T10:17:38;4;4;
53678;PMS5003;40119;52.030;4.708;2022-09-03T10:19:54;2;2;
53678;PMS5003;40119;52.030;4.708;2022-09-03T10:22:08;5;5;
53678;PMS5003;40119;52.030;4.708;2022-09-03T10:24:25;3;3;
53678;PMS5003;40119;52.030;4.708;2022-09-03T10:26:44;5;5;
53678;PMS5003;40119;52.030;4.708;2022-09-03T10:28:50;5;5;
53678;PMS5003;40119;52.030;4.708;2022-09-03T10:31:00;5;5;
53678;PMS5003;40119;52.030;4.708;2022-09-03T10:33:17;6;5;
53678;PMS5003;40119;52.030;4.708;2022-09-03T10:35:29;4;4;
53678;PMS5003;40119;52.030;4.708;2022-09-03T10:37:37;6;6;
53678;PMS5003;40119;52.030;4.708;2022-09-03T10:39:50;5;5;
53678;PMS5003;40119;52.030;4.708;2022-09-03T10:42:07;5;5;
53678;PMS5003;40119;52.030;4.708;2022-09-03T10:44:38;6;6;
53678;PMS5003;40119;52.030;4.708;2022-09-03T10:46:56;5;4;
53678;PMS5003;40119;52.030;4.708;2022-09-03T10:49:17;3;3;
53678;PMS5003;40119;52.030;4.708;2022-09-03T10:51:31;5;5;
53678;PMS5003;40119;52.030;4.708;2022-09-03T10:53:43;5;5;
53678;PMS5003;40119;52.030;4.708;2022-09-03T10:56:00;6;6;
53678;PMS5003;40119;52.030;4.708;2022-09-03T10:58:23;5;5;
53678;PMS5003;40119;52.030;4.708;2022-09-03T11:00:38;4;4;
53678;PMS5003;40119;52.030;4.708;2022-09-03T11:03:03;3;3;
53678;PMS5003;40119;52.030;4.708;2022-09-03T11:05:27;4;4;
53678;PMS5003;40119;52.030;4.708;2022-09-03T11:07:38;4;4;
53678;PMS5003;40119;52.030;4.708;2022-09-03T11:09:47;4;4;
53678;PMS5003;40119;52.030;4.708;2022-09-03T11:11:59;5;5;
53678;PMS5003;40119;52.030;4.708;2022-09-03T11:14:08;6;6;
53678;PMS5003;40119;52.030;4.708;2022-09-03T11:16:16;6;6;
53678;PMS5003;40119;52.030;4.708;2022-09-03T11:18:24;6;5;
53678;PMS5003;40119;52.030;4.708;2022-09-03T11:20:31;6;5;
53678;PMS5003;40119;52.030;4.708;2022-09-03T11:22:36;7;6;
53678;PMS5003;40119;52.030;4.708;2022-09-03T11:24:42;7;6;
53678;PMS5003;40119;52.030;4.708;2022-09-03T11:26:50;6;5;
53678;PMS5003;40119;52.030;4.708;2022-09-03T11:29:00;6;5;
53678;PMS5003;40119;52.030;4.708;2022-09-03T11:31:15;6;6;
53678;PMS5003;40119;52.030;4.708;2022-09-03T11:33:31;3;3;
53678;PMS5003;40119;52.030;4.708;2022-09-03T11:35:38;5;4;
53678;PMS5003;40119;52.030;4.708;2022-09-03T11:37:47;7;5;
53678;PMS5003;40119;52.030;4.708;2022-09-03T11:39:58;4;4;
53678;PMS5003;40119;52.030;4.708;2022-09-03T11:42:09;5;5;
53678;PMS5003;40119;52.030;4.708;2022-09-03T11:44:35;4;4;
53678;PMS5003;40119;52.030;4.708;2022-09-03T11:46:52;7;6;
53678;PMS5003;40119;52.030;4.708;2022-09-03T11:49:08;4;4;
53678;PMS5003;40119;52.030;4.708;2022-09-03T11:51:17;6;6;
53678;PMS5003;40119;52.030;4.708;2022-09-03T11:53:33;4;4;
53678;PMS5003;40119;52.030;4.708;2022-09-03T11:55:50;4;4;
53678;PMS5003;40119;52.030;4.708;2022-09-03T11:58:11;4;4;
53678;PMS5003;40119;52.030;4.708;2022-09-03T12:00:22;5;5;
53678;PMS5003;40119;52.030;4.708;2022-09-03T12:02:41;6;5;
53678;PMS5003;40119;52.030;4.708;2022-09-03T12:04:49;5;4;
53678;PMS5003;40119;52.030;4.708;2022-09-03T12:07:07;7;6;
53678;PMS5003;40119;52.030;4.708;2022-09-03T12:09:33;4;4;
53678;PMS5003;40119;52.030;4.708;2022-09-03T12:11:59;7;7;
53678;PMS5003;40119;52.030;4.708;2022-09-03T12:14:21;5;5;
53678;PMS5003;40119;52.030;4.708;2022-09-03T12:16:39;4;4;
53678;PMS5003;40119;52.030;4.708;2022-09-03T12:19:00;5;5;
53678;PMS5003;40119;52.030;4.708;2022-09-03T12:21:15;3;3;
53678;PMS5003;40119;52.030;4.708;2022-09-03T12:23:25;4;4;
53678;PMS5003;40119;52.030;4.708;2022-09-03T12:25:30;4;4;
53678;PMS5003;40119;52.030;4.708;2022-09-03T12:27:41;4;4;
53678;PMS5003;40119;52.030;4.708;2022-09-03T12:30:00;6;6;
53678;PMS5003;40119;52.030;4.708;2022-09-03T12:32:34;5;5;
53678;PMS5003;40119;52.030;4.708;2022-09-03T12:34:40;5;5;
53678;PMS5003;40119;52.030;4.708;2022-09-03T12:36:46;4;4;
53678;PMS5003;40119;52.030;4.708;2022-09-03T12:38:52;4;4;
53678;PMS5003;40119;52.030;4.708;2022-09-03T12:41:22;3;3;
53678;PMS5003;40119;52.030;4.708;2022-09-03T12:43:28;5;5;
53678;PMS5003;40119;52.030;4.708;2022-09-03T12:45:41;6;5;
53678;PMS5003;40119;52.030;4.708;2022-09-03T12:47:47;6;6;
53678;PMS5003;40119;52.030;4.708;2022-09-03T12:49:52;4;3;
53678;PMS5003;40119;52.030;4.708;2022-09-03T12:52:02;4;2;
53678;PMS5003;40119;52.030;4.708;2022-09-03T12:54:14;4;4;
53678;PMS5003;40119;52.030;4.708;2022-09-03T12:56:19;5;4;
53678;PMS5003;40119;52.030;4.708;2022-09-03T12:58:25;5;5;
53678;PMS5003;40119;52.030;4.708;2022-09-03T13:00:36;4;4;
53678;PMS5003;40119;52.030;4.708;2022-09-03T13:02:45;5;5;
53678;PMS5003;40119;52.030;4.708;2022-09-03T13:04:54;5;4;
53678;PMS5003;40119;52.030;4.708;2022-09-03T13:07:00;5;5;
53678;PMS5003;40119;52.030;4.708;2022-09-03T13:09:08;3;3;
53678;PMS5003;40119;52.030;4.708;2022-09-03T13:11:14;5;3;
53678;PMS5003;40119;52.030;4.708;2022-09-03T13:13:22;3;3;
53678;PMS5003;40119;52.030;4.708;2022-09-03T13:15:29;3;2;
53678;PMS5003;40119;52.030;4.708;2022-09-03T13:17:40;6;5;
53678;PMS5003;40119;52.030;4.708;2022-09-03T13:20:04;5;4;
53678;PMS5003;40119;52.030;4.708;2022-09-03T13:22:22;4;4;
53678;PMS5003;40119;52.030;4.708;2022-09-03T13:24:39;4;4;
53678;PMS5003;40119;52.030;4.708;2022-09-03T13:26:58;5;5;
53678;PMS5003;40119;52.030;4.708;2022-09-03T13:29:23;4;4;
53678;PMS5003;40119;52.030;4.708;2022-09-03T13:31:41;5;4;
53678;PMS5003;40119;52.030;4.708;2022-09-03T13:33:52;3;3;
53678;PMS5003;40119;52.030;4.708;2022-09-03T13:36:03;5;5;
53678;PMS5003;40119;52.030;4.708;2022-09-03T13:38:20;4;4;
53678;PMS5003;40119;52.030;4.708;2022-09-03T13:40:33;5;5;
53678;PMS5003;40119;52.030;4.708;2022-09-03T13:42:44;4;4;
53678;PMS5003;40119;52.030;4.708;2022-09-03T13:44:55;7;6;
53678;PMS5003;40119;52.030;4.708;2022-09-03T13:47:06;7;4;
53678;PMS5003;40119;52.030;4.708;2022-09-03T13:49:20;4;3;
53678;PMS5003;40119;52.030;4.708;2022-09-03T13:51:36;3;3;
53678;PMS5003;40119;52.030;4.708;2022-09-03T13:53:47;4;4;
53678;PMS5003;40119;52.030;4.708;2022-09-03T13:56:01;4;3;
53678;PMS5003;40119;52.030;4.708;2022-09-03T13:58:18;4;4;
53678;PMS5003;40119;52.030;4.708;2022-09-03T14:00:29;5;5;
53678;PMS5003;40119;52.030;4.708;2022-09-03T14:02:44;6;5;
53678;PMS5003;40119;52.030;4.708;2022-09-03T14:05:00;6;5;
53678;PMS5003;40119;52.030;4.708;2022-09-03T14:07:11;4;4;
53678;PMS5003;40119;52.030;4.708;2022-09-03T14:09:24;5;5;
53678;PMS5003;40119;52.030;4.708;2022-09-03T14:11:39;4;4;
53678;PMS5003;40119;52.030;4.708;2022-09-03T14:14:01;5;5;
53678;PMS5003;40119;52.030;4.708;2022-09-03T14:16:17;4;4;
53678;PMS5003;40119;52.030;4.708;2022-09-03T14:18:34;5;5;
53678;PMS5003;40119;52.030;4.708;2022-09-03T14:20:45;6;4;
53678;PMS5003;40119;52.030;4.708;2022-09-03T14:22:58;5;5;
53678;PMS5003;40119;52.030;4.708;2022-09-03T14:25:08;4;4;
53678;PMS5003;40119;52.030;4.708;2022-09-03T14:27:22;4;4;
53678;PMS5003;40119;52.030;4.708;2022-09-03T14:29:28;4;4;
53678;PMS5003;40119;52.030;4.708;2022-09-03T14:31:45;3;3;
53678;PMS5003;40119;52.030;4.708;2022-09-03T14:34:01;5;4;
53678;PMS5003;40119;52.030;4.708;2022-09-03T14:36:17;4;4;
53678;PMS5003;40119;52.030;4.708;2022-09-03T14:38:49;4;4;
53678;PMS5003;40119;52.030;4.708;2022-09-03T14:41:33;6;6;
53678;PMS5003;40119;52.030;4.708;2022-09-03T14:44:13;5;5;
53678;PMS5003;40119;52.030;4.708;2022-09-03T14:46:38;5;4;
53678;PMS5003;40119;52.030;4.708;2022-09-03T14:48:59;6;6;